Time;durP1;ratioP1;P1;durP2;ratioP2;P2;SDS_P1;SDS_P2;PMS_P1;PMS_P2;Temp;Humidity;BMP_temperature;BMP_pressure;BME280_temperature;BME280_humidity;BME280_pressure;Samples;Min_cycle;Max_cycle;Signal;HPM_P1;HPM_P2
2022/12/15 00:40:29;;;;;;;230.27;75.45;;;;;;;-6.52;100.00;99552.76;5043445;57;1142951;-71
2022/12/15 00:50:59;;;;;;;241.80;84.15;;;;;;;-6.72;100.00;99563.12;5063198;57;1143050;-68
2022/12/15 01:23:01;;;;;;;242.53;83.17;;;;;;;-6.98;100.00;99584.25;5128077;56;1143152;-71
2022/12/15 01:28:09;;;;;;;250.23;81.13;;;;;;;-6.89;100.00;99574.63;5128189;56;1143418;-71
2022/12/15 01:33:16;;;;;;;262.00;85.72;;;;;;;-6.82;100.00;99574.04;5080452;56;1143287;-70
2022/12/15 01:38:22;;;;;;;210.95;73.62;;;;;;;-6.80;100.00;99573.13;5166097;55;1143237;-72
2022/12/15 01:43:34;;;;;;;275.22;90.80;;;;;;;-6.82;100.00;99580.03;5120251;56;1143147;-72
2022/12/15 01:48:56;;;;;;;362.13;124.07;;;;;;;-6.86;100.00;99583.97;5140464;56;1143092;-72
2022/12/15 01:54:08;;;;;;;388.40;129.50;;;;;;;-6.92;100.00;99580.27;5119851;56;1145092;-67
2022/12/15 01:59:18;;;;;;;310.90;107.97;;;;;;;-6.90;100.00;99589.65;5129666;55;1145107;-68
2022/12/15 02:04:26;;;;;;;268.47;89.03;;;;;;;-6.85;100.00;99597.23;5138214;55;1151402;-72
2022/12/15 02:09:32;;;;;;;330.03;105.00;;;;;;;-6.89;100.00;99604.19;5143131;56;1143058;-72
2022/12/15 02:15:15;;;;;;;295.77;100.23;;;;;;;-6.93;100.00;99600.42;5044259;54;1145325;-69
2022/12/15 02:20:56;;;;;;;313.13;104.13;;;;;;;-7.08;100.00;99606.73;5036596;55;1145456;-68
2022/12/15 02:26:26;;;;;;;317.73;104.80;;;;;;;-7.37;100.00;99612.47;4951884;58;1145189;-68
2022/12/15 02:31:48;;;;;;;313.07;96.60;;;;;;;-7.69;100.00;99620.78;5102220;55;1145516;-67
2022/12/15 02:37:02;;;;;;;307.90;95.10;;;;;;;-7.91;100.00;99620.30;5113465;55;1143147;-68
2022/12/15 02:42:09;;;;;;;311.63;98.47;;;;;;;-8.05;100.00;99620.13;5096009;55;1143259;-72
2022/12/15 02:47:34;;;;;;;284.20;90.45;;;;;;;-7.90;100.00;99620.72;5086539;55;1143123;-74
2022/12/15 02:53:18;;;;;;;230.23;78.23;;;;;;;-7.73;100.00;99625.98;5086965;55;1143060;-65
2022/12/15 02:58:33;;;;;;;238.00;74.27;;;;;;;-7.62;100.00;99633.05;5059478;56;1143302;-72
2022/12/15 03:03:42;;;;;;;231.57;74.37;;;;;;;-7.54;100.00;99638.91;5176776;55;1143248;-72
2022/12/15 03:08:49;;;;;;;241.47;77.17;;;;;;;-7.58;100.00;99649.66;5173085;56;1142992;-69
2022/12/15 03:13:55;;;;;;;245.50;76.87;;;;;;;-7.47;100.00;99646.45;5091727;56;1142976;-71
2022/12/15 03:19:04;;;;;;;234.37;77.40;;;;;;;-7.52;100.00;99639.73;5106854;56;1143219;-69
2022/12/15 03:24:10;;;;;;;224.57;75.43;;;;;;;-7.59;100.00;99647.97;5087191;56;1142985;-66
2022/12/15 03:29:17;;;;;;;227.37;76.00;;;;;;;-7.58;100.00;99647.53;5087077;55;1143107;-66
2022/12/15 03:34:23;;;;;;;224.50;76.73;;;;;;;-7.62;100.00;99642.03;5101331;55;1143222;-68
2022/12/15 03:39:29;;;;;;;223.53;75.50;;;;;;;-7.73;100.00;99646.52;5193433;55;1143117;-68
2022/12/15 03:44:34;;;;;;;265.47;84.90;;;;;;;-7.86;100.00;99647.17;5196045;55;1143014;-71
2022/12/15 03:49:40;;;;;;;260.33;84.83;;;;;;;-7.85;100.00;99645.02;5207543;55;1143071;-72
2022/12/15 03:54:45;;;;;;;243.00;82.03;;;;;;;-7.85;100.00;99648.88;5228332;55;1142952;-73
2022/12/15 03:59:52;;;;;;;221.83;74.73;;;;;;;-7.86;100.00;99665.98;5144529;55;1142950;-72
2022/12/15 04:04:58;;;;;;;201.17;63.90;;;;;;;-7.87;100.00;99669.86;5149034;55;1142979;-69
2022/12/15 04:10:04;;;;;;;181.97;62.05;;;;;;;-7.96;100.00;99679.01;5134684;55;1143035;-72
2022/12/15 04:15:11;;;;;;;191.22;60.92;;;;;;;-8.00;100.00;99681.20;5044914;56;1143206;-67
2022/12/15 04:20:17;;;;;;;184.52;61.77;;;;;;;-8.00;100.00;99693.59;5112206;56;1143210;-69
2022/12/15 05:35:46;;;;;;;168.87;56.30;;;;;;;-8.95;99.40;99785.48;5093933;56;974167;-65
2022/12/15 05:40:52;;;;;;;163.83;55.03;;;;;;;-9.09;100.00;99799.71;5042749;57;1138891;-65
2022/12/15 05:46:01;;;;;;;149.20;50.97;;;;;;;-8.92;100.00;99802.95;5043192;57;1143011;-69
2022/12/15 05:51:09;;;;;;;171.27;57.03;;;;;;;-8.79;100.00;99816.48;5096703;56;1143383;-66
2022/12/15 05:56:16;;;;;;;168.50;57.25;;;;;;;-8.80;100.00;99831.44;5098272;56;1142924;-64
2022/12/15 06:01:22;;;;;;;181.87;65.13;;;;;;;-8.66;100.00;99829.56;5085822;56;1142946;-72
2022/12/15 06:06:28;;;;;;;156.63;57.53;;;;;;;-8.54;100.00;99845.23;5045688;56;1143246;-71
2022/12/15 06:11:33;;;;;;;156.77;55.83;;;;;;;-8.43;100.00;99847.27;5031799;57;1143207;-69
2022/12/15 06:16:39;;;;;;;235.50;81.63;;;;;;;-8.55;100.00;99852.50;5001551;57;1143175;-67
2022/12/15 06:21:45;;;;;;;182.85;65.05;;;;;;;-8.64;100.00;99897.05;4963228;57;1143165;-66
2022/12/15 06:26:50;;;;;;;142.90;51.47;;;;;;;-8.81;100.00;99867.31;4983664;57;1142999;-65
2022/12/15 06:31:56;;;;;;;163.40;50.80;;;;;;;-9.01;100.00;99867.06;4967457;57;1143093;-69
2022/12/15 06:37:03;;;;;;;160.73;61.43;;;;;;;-9.13;100.00;99881.27;5094818;56;1145161;-67
2022/12/15 06:42:08;;;;;;;236.20;73.40;;;;;;;-9.15;100.00;99893.66;5141608;56;1145149;-69
2022/12/15 06:47:15;;;;;;;210.93;70.33;;;;;;;-9.04;100.00;99890.17;5090722;56;1143085;-69
2022/12/15 06:52:21;;;;;;;199.60;76.07;;;;;;;-8.82;100.00;99884.41;5096873;56;1143183;-68
2022/12/15 06:57:26;;;;;;;375.00;121.87;;;;;;;-8.65;100.00;99882.53;5096602;56;1143377;-68
2022/12/15 07:02:32;;;;;;;213.40;80.10;;;;;;;-8.53;100.00;99882.39;5166833;55;1145060;-70
2022/12/15 07:07:37;;;;;;;208.77;71.70;;;;;;;-8.40;100.00;99888.23;5183090;55;1143127;-66
2022/12/15 07:12:43;;;;;;;195.80;70.17;;;;;;;-8.31;100.00;99892.39;5183618;55;1142910;-70
2022/12/15 07:17:49;;;;;;;181.60;68.90;;;;;;;-8.43;100.00;99899.83;5196012;55;1143212;-68
2022/12/15 07:22:55;;;;;;;190.97;70.77;;;;;;;-8.48;100.00;99921.23;5171937;55;1143158;-65
2022/12/15 07:28:02;;;;;;;203.00;71.87;;;;;;;-8.48;100.00;99923.38;5172335;55;1143151;-71
2022/12/15 07:33:08;;;;;;;187.13;67.33;;;;;;;-8.40;100.00;99930.53;5128111;55;1143240;-68
2022/12/15 07:38:14;;;;;;;197.90;73.00;;;;;;;-8.46;100.00;99931.91;5023384;57;1143220;-68
2022/12/15 07:43:21;;;;;;;167.77;64.15;;;;;;;-8.54;100.00;99943.93;5043588;54;1143199;-66
2022/12/15 07:48:28;;;;;;;199.00;65.93;;;;;;;-8.68;100.00;99968.41;5087157;55;1143216;-65
2022/12/15 07:53:34;;;;;;;225.27;77.97;;;;;;;-8.73;100.00;99968.91;5136465;54;1143098;-68
2022/12/15 07:58:39;;;;;;;203.90;70.43;;;;;;;-8.62;100.00;99983.75;5120604;54;1143011;-64
2022/12/15 08:03:45;;;;;;;239.03;77.97;;;;;;;-8.49;100.00;99993.45;5127404;55;1143228;-69
2022/12/15 08:08:51;;;;;;;259.10;89.00;;;;;;;-8.44;100.00;99998.55;5149695;56;1142999;-68
2022/12/15 08:13:57;;;;;;;232.77;85.33;;;;;;;-8.33;100.00;100006.98;5112041;56;1143121;-66
2022/12/15 08:19:04;;;;;;;212.40;77.40;;;;;;;-8.22;100.00;99994.87;5129106;56;1145003;-69
2022/12/15 08:24:12;;;;;;;191.67;76.27;;;;;;;-8.04;100.00;99997.25;5149416;56;1143226;-67
2022/12/15 08:29:18;;;;;;;199.60;75.20;;;;;;;-7.94;100.00;100009.09;5129298;56;1143097;-72
2022/12/15 08:34:24;;;;;;;182.33;74.57;;;;;;;-7.83;100.00;100018.84;5087704;55;1145166;-69
2022/12/15 08:39:30;;;;;;;185.03;68.17;;;;;;;-7.71;100.00;100022.97;5202711;55;1145005;-66
2022/12/15 08:44:36;;;;;;;165.77;61.30;;;;;;;-7.59;100.00;100033.09;5035936;56;1145052;-70
2022/12/15 08:49:42;;;;;;;167.47;58.20;;;;;;;-7.57;100.00;100044.63;5034060;56;1145220;-69
2022/12/15 08:54:48;;;;;;;142.47;51.53;;;;;;;-7.55;100.00;100054.02;5055525;56;1145242;-68
2022/12/15 08:59:54;;;;;;;152.30;54.67;;;;;;;-7.51;100.00;100046.70;5036833;56;1145267;-68
2022/12/15 09:05:00;;;;;;;177.80;60.07;;;;;;;-7.53;100.00;100051.44;5181933;55;1145225;-72
2022/12/15 09:10:07;;;;;;;202.32;70.22;;;;;;;-7.46;100.00;100053.05;5192743;55;1145073;-65
2022/12/15 09:15:12;;;;;;;175.80;63.53;;;;;;;-7.38;100.00;100052.97;5031917;56;1145038;-70
2022/12/15 09:20:18;;;;;;;152.23;51.60;;;;;;;-7.30;100.00;100058.41;5098721;56;1145027;-67
2022/12/15 09:25:24;;;;;;;168.75;55.67;;;;;;;-7.19;100.00;100066.85;5112407;56;1145359;-70
2022/12/15 09:30:29;;;;;;;178.78;60.10;;;;;;;-7.19;100.00;100066.85;5136291;56;1145163;-72
2022/12/15 09:35:35;;;;;;;147.13;51.97;;;;;;;-7.08;100.00;100070.98;5093769;55;1145143;-70
2022/12/15 09:40:41;;;;;;;149.60;52.87;;;;;;;-7.00;100.00;100066.14;5182567;55;1145126;-68
2022/12/15 09:45:51;;;;;;;197.63;74.80;;;;;;;-6.90;100.00;100067.73;5202879;55;1144965;-65
2022/12/15 09:50:59;;;;;;;141.93;55.67;;;;;;;-6.80;100.00;100067.16;5070743;55;1145319;-69
2022/12/15 09:56:09;;;;;;;146.47;48.53;;;;;;;-6.68;100.00;100069.54;5031412;56;1145077;-68
2022/12/15 10:01:36;;;;;;;186.63;69.13;;;;;;;-6.54;100.00;100075.32;5098323;55;1145229;-70
2022/12/15 10:07:07;;;;;;;711.73;145.67;;;;;;;-6.41;100.00;100086.27;5185479;55;1145099;-69
2022/12/15 10:12:31;;;;;;;205.57;73.90;;;;;;;-6.31;100.00;100083.98;5095743;55;1147254;-69
2022/12/15 10:17:47;;;;;;;170.70;64.77;;;;;;;-6.27;100.00;100080.48;5032673;55;1145107;-69
2022/12/15 10:22:55;;;;;;;174.13;67.10;;;;;;;-6.25;100.00;100087.72;5052324;55;1145113;-67
2022/12/15 10:28:45;;;;;;;136.63;49.77;;;;;;;-6.22;100.00;100094.11;5032163;57;1145157;-72
2022/12/15 10:33:57;;;;;;;187.67;71.23;;;;;;;-6.16;100.00;100088.02;5044338;55;1145116;-67
2022/12/15 10:39:05;;;;;;;201.23;68.40;;;;;;;-6.10;100.00;100089.19;5129696;55;1145002;-68
2022/12/15 10:44:26;;;;;;;210.07;86.10;;;;;;;-6.03;100.00;100079.21;5224719;55;1145067;-68
2022/12/15 10:49:31;;;;;;;269.53;96.57;;;;;;;-5.98;100.00;100085.14;5208022;55;1145267;-65
2022/12/15 10:54:42;;;;;;;205.15;72.27;;;;;;;-5.84;100.00;100084.42;5115364;55;1145170;-70
2022/12/15 10:59:48;;;;;;;222.53;89.30;;;;;;;-5.75;100.00;100089.39;5228619;55;1145012;-68
2022/12/15 11:05:15;;;;;;;279.77;76.50;;;;;;;-5.70;100.00;100094.47;5218053;55;1145083;-67
2022/12/15 11:15:47;;;;;;;260.03;90.90;;;;;;;-5.57;100.00;100098.95;5029563;56;1145125;-65
2022/12/15 11:21:09;;;;;;;215.00;70.73;;;;;;;-5.50;100.00;100094.92;5119648;56;1145123;-71
2022/12/15 11:26:35;;;;;;;168.47;67.03;;;;;;;-5.43;100.00;100096.52;5076536;56;1145229;-70
2022/12/15 11:31:46;;;;;;;138.33;56.87;;;;;;;-5.38;100.00;100091.28;5075802;55;1145067;-69
2022/12/15 11:37:27;;;;;;;164.63;67.03;;;;;;;-5.29;100.00;100101.83;5104130;55;1145156;-68
2022/12/15 11:42:54;;;;;;;138.40;53.33;;;;;;;-5.20;100.00;100115.84;5043766;56;1145248;-69
2022/12/15 11:48:17;;;;;;;138.93;55.73;;;;;;;-5.12;100.00;100133.28;5064790;56;1145251;-69
2022/12/15 11:53:48;;;;;;;140.93;56.10;;;;;;;-5.05;100.00;100129.27;5044751;56;1145056;-66
2022/12/15 11:59:24;;;;;;;119.53;53.30;;;;;;;-4.96;100.00;100132.94;5065147;56;1145272;-72
2022/12/15 12:04:57;;;;;;;109.17;42.97;;;;;;;-4.86;100.00;100127.58;5129561;55;1145077;-72
2022/12/15 12:10:32;;;;;;;120.23;47.50;;;;;;;-4.79;100.00;100135.61;5136559;55;1145133;-67
2022/12/15 12:16:02;;;;;;;78.40;31.47;;;;;;;-4.71;100.00;100150.47;5076007;56;1145146;-71
2022/12/15 12:21:12;;;;;;;61.80;26.75;;;;;;;-4.65;100.00;100140.88;5090371;55;1143172;-71
2022/12/15 12:26:28;;;;;;;94.43;38.27;;;;;;;-4.59;100.00;100135.19;5172739;55;1143017;-69
2022/12/15 12:31:59;;;;;;;66.72;28.95;;;;;;;-4.59;100.00;100136.48;5176134;55;1143081;-67
2022/12/15 12:37:24;;;;;;;92.10;38.23;;;;;;;-4.47;100.00;100149.09;5072381;55;1142987;-69
2022/12/15 12:42:52;;;;;;;82.40;31.62;;;;;;;-4.43;100.00;100149.45;5036523;56;1143116;-69
2022/12/15 12:48:03;;;;;;;86.97;37.80;;;;;;;-4.39;100.00;100151.90;5056208;56;1143130;-70
2022/12/15 12:53:25;;;;;;;66.73;29.27;;;;;;;-4.32;100.00;100151.33;5036528;57;1143077;-68
2022/12/15 12:58:41;;;;;;;70.63;27.00;;;;;;;-4.30;100.00;100157.31;5035516;57;1143223;-67
2022/12/15 13:03:50;;;;;;;72.40;30.87;;;;;;;-4.30;100.00;100160.75;5111183;56;1143432;-69
2022/12/15 13:08:56;;;;;;;85.20;35.57;;;;;;;-4.26;100.00;100170.09;5140647;56;1142978;-70
2022/12/15 13:14:03;;;;;;;77.10;29.30;;;;;;;-4.22;100.00;100163.14;5040721;56;1143103;-68
2022/12/15 13:19:09;;;;;;;139.20;51.93;;;;;;;-4.17;100.00;100162.59;5036759;56;1142996;-68
2022/12/15 13:24:28;;;;;;;88.73;38.93;;;;;;;-4.13;100.00;100176.29;5065276;56;1145283;-71
2022/12/15 13:29:39;;;;;;;86.37;42.60;;;;;;;-4.10;100.00;100189.11;5120893;56;1143038;-69
2022/12/15 13:34:45;;;;;;;59.80;24.17;;;;;;;-4.12;100.00;100194.74;5105480;56;1142967;-67
2022/12/15 13:39:57;;;;;;;78.97;35.73;;;;;;;-4.13;100.00;100190.05;5141324;56;1142924;-71
2022/12/15 13:45:14;;;;;;;65.83;28.80;;;;;;;-4.15;100.00;100192.26;5120109;56;1222634;-69
2022/12/15 13:50:24;;;;;;;66.07;28.00;;;;;;;-4.14;100.00;100189.64;5101116;56;1142923;-68
2022/12/15 13:55:37;;;;;;;86.22;38.48;;;;;;;-4.11;100.00;100200.31;5110641;56;1187042;-71
2022/12/15 14:00:55;;;;;;;224.05;91.47;;;;;;;-4.10;100.00;100198.99;5164324;55;1143203;-69
2022/12/15 14:06:01;;;;;;;112.47;51.33;;;;;;;-4.07;100.00;100200.22;5035415;56;1167531;-66
2022/12/15 14:11:12;;;;;;;146.40;63.03;;;;;;;-4.05;100.00;100207.94;5112978;55;1145343;-70
2022/12/15 14:16:22;;;;;;;148.70;68.83;;;;;;;-4.03;100.00;100219.94;5161139;55;1144976;-69
2022/12/15 14:21:29;;;;;;;88.80;37.90;;;;;;;-4.01;100.00;100219.46;5116080;56;1145108;-66
2022/12/15 14:26:34;;;;;;;82.20;33.50;;;;;;;-4.00;100.00;100216.44;5115811;56;1186335;-67
2022/12/15 14:31:41;;;;;;;128.00;55.20;;;;;;;-4.04;100.00;100210.48;5136585;56;1143143;-68
2022/12/15 14:36:49;;;;;;;118.27;52.10;;;;;;;-4.04;100.00;100211.78;5126095;55;1145229;-65
2022/12/15 14:41:56;;;;;;;97.67;46.63;;;;;;;-3.99;100.00;100215.11;5116016;56;1145217;-69
2022/12/15 14:47:10;;;;;;;144.85;63.78;;;;;;;-4.00;100.00;100216.00;5136947;56;1143015;-67
2022/12/15 14:52:32;;;;;;;325.93;108.40;;;;;;;-4.02;100.00;100219.49;5116278;56;1170611;-70
2022/12/15 14:57:45;;;;;;;146.67;54.60;;;;;;;-4.01;100.00;100212.16;5116633;56;1147282;-69
2022/12/15 15:03:10;;;;;;;170.13;64.53;;;;;;;-4.05;100.00;100222.99;5145411;55;1145021;-72
2022/12/15 15:08:26;;;;;;;315.50;95.40;;;;;;;-4.09;100.00;100217.48;5033566;56;1145934;-71
2022/12/15 15:13:41;;;;;;;280.67;85.30;;;;;;;-4.14;100.00;100226.23;4887288;57;1189846;-67
2022/12/15 15:18:53;;;;;;;308.60;94.05;;;;;;;-4.15;100.00;100230.99;4911373;57;1247226;-70
2022/12/15 15:24:15;;;;;;;345.03;116.27;;;;;;;-4.15;100.00;100234.42;4990088;57;1252843;-72
2022/12/15 15:29:39;;;;;;;192.13;71.17;;;;;;;-4.14;100.00;100235.27;5016495;56;1255746;-71
2022/12/15 15:34:49;;;;;;;124.93;55.63;;;;;;;-4.19;100.00;100229.35;5068428;56;1245886;-70
2022/12/15 15:39:56;;;;;;;187.10;84.30;;;;;;;-4.24;100.00;100242.35;5091499;55;1145370;-69
2022/12/15 15:45:02;;;;;;;155.90;63.93;;;;;;;-4.25;100.00;100252.27;5053671;56;1253888;-67
2022/12/15 15:50:13;;;;;;;105.80;48.20;;;;;;;-4.23;100.00;100267.29;5068646;56;1257928;-68
2022/12/15 15:55:23;;;;;;;143.50;61.28;;;;;;;-4.22;100.00;100267.70;5127190;56;1145079;-73
2022/12/15 16:00:29;;;;;;;344.68;92.10;;;;;;;-4.27;100.00;100275.98;5110527;56;1145202;-69
2022/12/15 16:05:34;;;;;;;350.70;93.30;;;;;;;-4.31;100.00;100272.63;5064163;56;1251585;-73
2022/12/15 16:10:41;;;;;;;162.13;55.10;;;;;;;-4.33;100.00;100270.52;5030876;56;1248398;-71
2022/12/15 16:15:48;;;;;;;117.83;50.37;;;;;;;-4.31;100.00;100271.78;5043289;56;1145554;-75
2022/12/15 16:20:54;;;;;;;129.37;47.87;;;;;;;-4.32;100.00;100266.20;5056425;56;1264130;-72
2022/12/15 16:26:02;;;;;;;184.63;61.63;;;;;;;-4.30;100.00;100272.19;5143740;56;1145097;-73
2022/12/15 16:31:15;;;;;;;111.00;47.10;;;;;;;-4.35;100.00;100280.46;5091179;56;1185347;-67
2022/12/15 16:36:21;;;;;;;191.15;66.07;;;;;;;-4.34;100.00;100284.75;5066339;56;1176333;-66
2022/12/15 16:41:27;;;;;;;119.30;46.57;;;;;;;-4.34;100.00;100292.48;5027530;57;1145227;-67
2022/12/15 16:46:32;;;;;;;136.73;53.93;;;;;;;-4.36;100.00;100298.13;5056807;56;1145468;-67
2022/12/15 16:51:45;;;;;;;84.40;37.17;;;;;;;-4.38;100.00;100296.86;5036749;56;1145288;-71
2022/12/15 16:56:52;;;;;;;258.43;88.70;;;;;;;-4.38;100.00;100303.75;5063883;56;1143294;-72
2022/12/15 17:01:58;;;;;;;134.67;51.80;;;;;;;-4.41;100.00;100296.06;5098428;56;1145096;-73
2022/12/15 17:07:05;;;;;;;121.00;52.10;;;;;;;-4.41;100.00;100305.95;5052630;56;1243087;-74
2022/12/15 17:12:19;;;;;;;148.33;59.00;;;;;;;-4.39;100.00;100311.08;5103774;55;1167725;-72
2022/12/15 17:17:26;;;;;;;153.42;59.42;;;;;;;-4.37;100.00;100310.17;5116445;55;1145157;-73
2022/12/15 17:22:34;;;;;;;109.75;46.85;;;;;;;-4.35;100.00;100306.28;5174064;55;1145097;-70
2022/12/15 17:27:40;;;;;;;250.72;94.50;;;;;;;-4.38;100.00;100304.60;5089018;54;1190349;-72
2022/12/15 17:32:47;;;;;;;213.00;87.20;;;;;;;-4.37;100.00;100302.43;5096808;55;1145207;-70
2022/12/15 17:37:54;;;;;;;160.33;66.13;;;;;;;-4.37;100.00;100310.17;5140507;55;1145051;-70
2022/12/15 17:42:59;;;;;;;87.53;33.97;;;;;;;-4.37;100.00;100310.17;5137357;55;1145304;-67
2022/12/15 17:48:06;;;;;;;106.27;43.73;;;;;;;-4.42;100.00;100340.38;5102460;55;1143091;-68
2022/12/15 17:53:13;;;;;;;86.47;39.50;;;;;;;-4.49;100.00;100340.55;5128740;55;1145170;-67
2022/12/15 17:58:23;;;;;;;159.07;63.67;;;;;;;-4.55;100.00;100351.83;5191302;55;1143053;-72
2022/12/15 18:03:29;;;;;;;91.40;41.77;;;;;;;-4.57;100.00;100356.16;5205957;55;1145102;-69
2022/12/15 18:08:35;;;;;;;106.35;44.55;;;;;;;-4.52;100.00;100354.35;5198459;55;1143104;-70
2022/12/15 18:13:41;;;;;;;74.23;33.23;;;;;;;-4.51;100.00;100357.78;5224738;55;1145185;-68
2022/12/15 18:18:46;;;;;;;101.03;37.10;;;;;;;-4.53;100.00;100363.41;5197566;55;1143187;-71
2022/12/15 18:23:52;;;;;;;88.45;39.03;;;;;;;-4.58;100.00;100366.06;5146071;55;1145064;-71
2022/12/15 18:28:58;;;;;;;95.53;41.50;;;;;;;-4.57;100.00;100367.77;5150971;55;1142997;-69
2022/12/15 18:34:06;;;;;;;81.33;32.60;;;;;;;-4.53;100.00;100362.97;5175439;55;1143128;-69
2022/12/15 18:39:27;;;;;;;98.93;42.60;;;;;;;-4.54;100.00;100363.00;5157845;55;1142966;-68
2022/12/15 18:44:32;;;;;;;121.00;51.73;;;;;;;-4.64;100.00;100370.92;5178949;55;1143148;-70
2022/12/15 18:49:38;;;;;;;136.17;62.77;;;;;;;-4.69;100.00;100377.88;5197441;55;1145179;-71
2022/12/15 18:54:45;;;;;;;165.90;64.37;;;;;;;-4.72;100.00;100371.48;5135087;55;1144954;-71
2022/12/15 18:59:50;;;;;;;152.83;64.47;;;;;;;-4.69;100.00;100367.56;5155615;55;1144983;-71
2022/12/15 19:04:56;;;;;;;955.03;264.27;;;;;;;-4.66;100.00;100370.09;5187077;55;1145227;-70
2022/12/15 19:10:02;;;;;;;659.40;192.87;;;;;;;-4.54;100.00;100359.98;5176152;54;1147404;-70
2022/12/15 19:15:18;;;;;;;270.37;90.87;;;;;;;-4.39;100.00;100354.52;5162224;55;1147213;-68
2022/12/15 19:25:51;;;;;;;141.27;57.57;;;;;;;-4.20;100.00;100365.34;5174195;55;1147253;-69
2022/12/15 19:30:57;;;;;;;146.73;59.77;;;;;;;-4.24;100.00;100377.90;5132111;55;1145250;-70
2022/12/15 19:36:03;;;;;;;197.13;76.70;;;;;;;-4.25;100.00;100381.36;5216912;55;1145131;-69
2022/12/15 19:41:15;;;;;;;209.43;71.23;;;;;;;-4.26;100.00;100384.81;5238180;55;1145057;-71
2022/12/15 19:46:22;;;;;;;291.20;90.50;;;;;;;-4.28;100.00;100398.23;5217124;55;1145073;-71
2022/12/15 19:51:28;;;;;;;376.33;103.67;;;;;;;-4.43;100.00;100398.05;5217530;55;1145129;-71
2022/12/15 19:56:33;;;;;;;434.77;125.67;;;;;;;-4.55;100.00;100396.13;5217873;55;1147468;-72
2022/12/15 20:01:39;;;;;;;330.95;101.00;;;;;;;-4.58;100.00;100402.19;5228679;55;1147257;-73
2022/12/15 20:06:45;;;;;;;231.73;73.53;;;;;;;-4.73;100.00;100393.00;5181103;55;1147077;-68
2022/12/15 20:11:51;;;;;;;170.90;61.80;;;;;;;-4.84;100.00;100385.03;5215816;55;1145081;-71
2022/12/15 20:16:57;;;;;;;223.20;71.50;;;;;;;-5.02;100.00;100396.50;5207787;55;1145155;-69
2022/12/15 20:22:04;;;;;;;188.60;69.47;;;;;;;-5.17;100.00;100406.63;5181513;55;1145133;-73
2022/12/15 20:27:18;;;;;;;202.97;75.53;;;;;;;-5.31;100.00;100411.14;5182544;55;1145172;-74
2022/12/15 20:32:24;;;;;;;181.27;63.93;;;;;;;-5.28;100.00;100416.25;5156652;55;1145217;-66
2022/12/15 20:37:30;;;;;;;262.48;91.10;;;;;;;-5.31;100.00;100412.42;5081868;55;1145357;-72
2022/12/15 20:42:36;;;;;;;401.85;150.07;;;;;;;-5.37;100.00;100413.39;5074519;56;1145267;-67
2022/12/15 20:47:45;;;;;;;304.93;114.00;;;;;;;-5.42;100.00;100408.73;5034582;56;1147232;-71
2022/12/15 20:52:50;;;;;;;303.07;103.90;;;;;;;-5.53;100.00;100410.61;5086889;55;1147304;-71
2022/12/15 20:57:56;;;;;;;419.17;147.70;;;;;;;-5.53;100.00;100423.50;5091436;55;1147386;-71
2022/12/15 21:03:02;;;;;;;351.27;120.10;;;;;;;-5.62;100.00;100426.18;5133863;55;1147258;-66
2022/12/15 21:08:18;;;;;;;381.33;125.30;;;;;;;-5.72;100.00;100419.45;5122140;55;1147199;-71
2022/12/15 21:13:28;;;;;;;282.53;88.07;;;;;;;-5.86;100.00;100438.09;5094580;55;1147097;-68
2022/12/15 21:18:34;;;;;;;392.47;124.87;;;;;;;-6.02;100.00;100423.73;5150018;55;1145117;-69
2022/12/15 21:23:40;;;;;;;345.47;113.17;;;;;;;-6.12;100.00;100423.85;5171981;55;1147348;-68
2022/12/15 21:28:46;;;;;;;345.97;115.70;;;;;;;-6.04;100.00;100441.77;5127059;55;1147285;-72
2022/12/15 21:33:52;;;;;;;275.30;89.97;;;;;;;-5.94;100.00;100442.50;5095902;55;1147613;-73
2022/12/15 21:38:59;;;;;;;273.40;90.97;;;;;;;-5.87;100.00;100437.24;5116810;56;1145139;-73
2022/12/15 21:44:08;;;;;;;279.27;90.40;;;;;;;-5.82;100.00;100425.17;5091427;55;1145051;-67
2022/12/15 21:49:18;;;;;;;244.13;84.10;;;;;;;-5.77;100.00;100435.39;5054711;55;1145167;-70
2022/12/15 21:54:31;;;;;;;210.27;74.33;;;;;;;-5.85;100.00;100441.09;5041761;56;1145511;-66
2022/12/15 21:59:37;;;;;;;329.33;100.30;;;;;;;-5.85;100.00;100432.92;5040883;56;1145098;-71
2022/12/15 22:04:43;;;;;;;433.05;127.10;;;;;;;-5.97;100.00;100442.12;5064086;56;1147312;-67
2022/12/15 22:09:50;;;;;;;283.13;93.87;;;;;;;-6.14;100.00;100443.60;5031739;56;1147176;-71
2022/12/15 22:14:56;;;;;;;250.57;86.27;;;;;;;-6.20;100.00;100454.39;5051461;57;1145061;-69
2022/12/15 22:20:02;;;;;;;219.73;73.23;;;;;;;-6.16;100.00;100439.34;5039236;57;1145123;-71
2022/12/15 22:25:10;;;;;;;213.33;74.40;;;;;;;-6.20;100.00;100432.51;5043861;57;1145111;-73
2022/12/15 22:30:20;;;;;;;198.70;66.43;;;;;;;-6.22;100.00;100428.66;5064128;57;1144995;-72
2022/12/15 22:35:27;;;;;;;163.57;55.33;;;;;;;-6.41;100.00;100423.28;5078259;56;1145061;-70
2022/12/15 22:40:33;;;;;;;185.82;62.50;;;;;;;-6.64;100.00;100411.10;5044857;56;1148237;-73
2022/12/15 22:45:40;;;;;;;175.20;63.50;;;;;;;-6.62;100.00;100426.09;5065128;56;1145152;-68
2022/12/15 22:50:46;;;;;;;123.43;48.17;;;;;;;-6.58;100.00;100418.34;5045525;56;1145111;-71
2022/12/15 22:55:51;;;;;;;175.70;62.00;;;;;;;-6.57;100.00;100408.91;5045365;56;1145049;-71
2022/12/15 23:00:59;;;;;;;168.00;59.27;;;;;;;-6.57;100.00;100415.33;5115464;55;1145265;-73
2022/12/15 23:06:05;;;;;;;228.23;79.40;;;;;;;-6.63;100.00;100411.52;5108852;55;1145167;-73
2022/12/15 23:16:35;;;;;;;225.43;80.80;;;;;;;-6.69;100.00;100388.42;5098767;56;1154679;-70
2022/12/15 23:21:41;;;;;;;230.45;80.17;;;;;;;-6.66;100.00;100402.55;5118910;56;1145082;-71
2022/12/15 23:26:46;;;;;;;211.17;70.23;;;;;;;-6.74;100.00;100401.34;5098022;56;1145039;-66
2022/12/15 23:31:52;;;;;;;204.23;68.37;;;;;;;-6.92;100.00;100395.93;5093457;56;1145178;-68
2022/12/15 23:36:58;;;;;;;219.03;78.77;;;;;;;-7.13;100.00;100394.81;5076215;56;1145177;-72
2022/12/15 23:42:04;;;;;;;162.30;59.67;;;;;;;-7.17;100.00;100408.54;5134048;55;1145377;-66
2022/12/15 23:47:10;;;;;;;151.03;53.23;;;;;;;-7.24;100.00;100396.62;5177066;55;1145129;-69
2022/12/15 23:52:17;;;;;;;140.53;55.07;;;;;;;-7.36;100.00;100401.42;5238390;55;1145234;-70
2022/12/15 23:57:22;;;;;;;125.07;52.03;;;;;;;-7.46;100.00;100413.45;5217544;55;1144965;-69
